Airport View

Enter AWOS ICAO identifier for current METAR.

ex. KFNL

KDLL 290515Z AUTO 27003KT 10SM CLR 07/06 A2984 RMK AO2 T00650059

29 Sep 2020 05:16

Frequency: 118.325

Phone: 608-356-1071

Other Area AWOS: KC35 - K82C - KLNR - KC29

TAF AMD KMSN 290332Z 2904/2924 29005KT P6SM FEW070 FM291000 27005KT P6SM BKN035 FM291200 27005KT P6SM BKN022 FM292100 25009KT P6SM BKN035